EDT,Max TemperatureF,Mean TemperatureF,Min TemperatureF,Max Dew PointF,MeanDew PointF,Min DewpointF,Max Humidity, Mean Humidity, Min Humidity, Max Sea Level PressureIn, Mean Sea Level PressureIn, Min Sea Level PressureIn, Max VisibilityMiles, Mean VisibilityMiles, Min VisibilityMiles, Max Wind SpeedMPH, Mean Wind SpeedMPH, Max Gust SpeedMPH,PrecipitationIn, CloudCover, Events, WindDirDegrees
2010-10-1,79,68,57,72,67,57,100,94,79,29.82,29.62,29.52,10,5,1,26,13,45,1.99,7,Rain,220
2010-10-2,64,56,48,57,51,47,100,81,58,30.05,29.82,29.59,10,10,8,22,13,32,0.08,4,Rain,356
2010-10-3,60,52,46,52,48,46,97,77,65,30.17,30.11,30.07,10,10,10,22,9,33,0.00,5,,40
2010-10-4,60,57,55,57,54,48,100,88,70,30.15,30.10,30.04,10,7,2,25,18,37,0.03,8,Rain,43
2010-10-5,61,59,57,61,59,57,100,99,94,30.05,30.01,29.99,10,3,1,16,11,25,0.13,8,Rain,59
2010-10-6,64,58,54,63,59,50,100,96,75,30.06,29.84,29.65,10,6,1,17,7,23,1.07,7,Rain,124
2010-10-7,64,58,52,55,50,44,89,75,58,29.75,29.59,29.49,10,10,4,21,14,30,0.03,4,Rain,251
2010-10-8,68,60,52,54,47,42,80,61,45,29.85,29.78,29.70,10,10,10,25,12,32,0.00,0,,258
2010-10-9,63,57,52,51,42,32,90,58,35,29.94,29.84,29.74,10,10,10,18,9,26,0.00,0,,333
2010-10-10,61,52,44,52,39,31,87,59,39,29.94,29.83,29.70,10,10,10,21,10,25,0.00,0,,268
2010-10-11,70,56,43,52,45,40,93,69,37,29.81,29.75,29.70,10,10,10,13,4,18,0.00,0,,300
2010-10-12,61,54,46,59,54,45,100,90,77,29.87,29.77,29.71,10,9,2,14,5,20,0.08,5,Rain,315
2010-10-13,60,50,41,47,44,39,93,76,53,30.04,29.98,29.88,10,10,10,10,5,,0.00,2,,7
2010-10-14,60,49,39,55,46,37,97,80,62,30.04,29.92,29.59,10,10,3,12,4,17,0.23,4,Rain,100
2010-10-15,61,53,46,61,51,38,100,84,62,29.57,29.30,29.16,10,7,2,29,14,39,0.98,8,Rain,191
2010-10-16,57,50,44,40,38,36,76,64,49,29.77,29.52,29.32,10,10,10,22,14,33,0.00,5,Rain,308
2010-10-17,63,54,44,49,40,36,80,64,47,29.81,29.76,29.68,10,10,10,15,9,22,0.00,0,,277
2010-10-18,59,54,48,43,37,29,71,56,33,29.90,29.85,29.79,10,10,10,12,8,24,0.00,0,,278
2010-10-19,57,47,37,39,35,30,93,67,38,29.94,29.91,29.86,10,10,10,12,4,,0.00,0,,286
2010-10-20,59,48,36,50,46,34,93,75,64,29.95,29.88,29.78,10,10,10,14,6,20,0.00,1,,199
2010-10-21,61,49,37,52,45,36,97,81,63,29.76,29.61,29.51,10,9,2,25,7,36,0.14,3,Rain-Thunderstorm,239
2010-10-22,51,44,37,36,28,22,79,56,36,29.99,29.86,29.72,10,10,10,23,10,34,0.00,2,,277
2010-10-23,57,48,39,39,34,27,89,59,44,30.16,30.05,29.99,10,10,10,17,10,31,0.00,2,,283
2010-10-24,54,46,39,49,41,35,93,74,61,30.21,30.14,30.06,10,10,10,9,3,,0.00,6,,96
2010-10-25,64,58,53,60,56,50,100,92,82,30.06,30.00,29.89,10,7,1,15,4,23,0.00,7,Rain,210
2010-10-26,66,62,60,61,61,59,100,93,87,29.99,29.93,29.86,10,8,1,21,14,31,0.00,7,,212
2010-10-27,66,63,60,65,63,61,100,98,94,29.99,29.94,29.88,9,4,1,21,12,30,0.47,8,Rain,206
2010-10-28,64,60,57,65,61,46,100,98,67,29.89,29.82,29.78,10,5,0,14,11,23,0.17,7,Fog-Rain-Thunderstorm,219
2010-10-29,57,50,46,44,41,36,83,68,51,29.90,29.84,29.79,10,10,10,16,7,22,0.01,2,Rain,322
2010-10-30,55,47,39,46,36,27,72,61,47,30.03,29.91,29.76,10,10,10,23,14,33,0.00,1,,255
2010-10-31,59,50,41,46,36,25,72,57,42,30.04,29.77,29.66,10,10,10,20,14,33,0.00,4,,294